sensor_id;sensor_type;location;lat;lon;timestamp;pressure;altitude;pressure_sealevel;temperature;humidity
56668;BME280;42542;48.360;10.958;2023-05-17T00:01:02;96286.09;;;8.53;95.11
56668;BME280;42542;48.360;10.958;2023-05-17T00:04:04;96283.59;;;8.52;94.85
56668;BME280;42542;48.360;10.958;2023-05-17T00:07:08;96298.91;;;8.50;94.65
56668;BME280;42542;48.360;10.958;2023-05-17T00:10:11;96305.75;;;8.52;95.14
56668;BME280;42542;48.360;10.958;2023-05-17T00:13:13;96309.69;;;8.48;94.42
56668;BME280;42542;48.360;10.958;2023-05-17T00:16:15;96312.50;;;8.47;94.42
56668;BME280;42542;48.360;10.958;2023-05-17T00:19:17;96312.78;;;8.44;94.46
56668;BME280;42542;48.360;10.958;2023-05-17T00:22:19;96316.75;;;8.40;93.78
56668;BME280;42542;48.360;10.958;2023-05-17T00:25:21;96315.91;;;8.39;94.06
56668;BME280;42542;48.360;10.958;2023-05-17T00:28:23;96313.22;;;8.39;94.48
56668;BME280;42542;48.360;10.958;2023-05-17T00:31:25;96325.84;;;8.37;93.53
56668;BME280;42542;48.360;10.958;2023-05-17T00:34:27;96323.31;;;8.36;94.06
56668;BME280;42542;48.360;10.958;2023-05-17T00:37:29;96327.84;;;8.35;94.57
56668;BME280;42542;48.360;10.958;2023-05-17T00:40:33;96323.88;;;8.30;93.87
56668;BME280;42542;48.360;10.958;2023-05-17T00:43:34;96332.72;;;8.30;93.48
56668;BME280;42542;48.360;10.958;2023-05-17T00:46:36;96333.00;;;8.27;92.92
56668;BME280;42542;48.360;10.958;2023-05-17T00:49:39;96322.63;;;8.24;92.24
56668;BME280;42542;48.360;10.958;2023-05-17T00:52:41;96341.41;;;8.22;91.65
56668;BME280;42542;48.360;10.958;2023-05-17T00:55:43;96339.06;;;8.19;92.03
56668;BME280;42542;48.360;10.958;2023-05-17T00:58:47;96342.00;;;8.16;91.10
56668;BME280;42542;48.360;10.958;2023-05-17T01:01:49;96337.13;;;8.12;90.47
56668;BME280;42542;48.360;10.958;2023-05-17T01:04:52;96340.06;;;8.09;90.37
56668;BME280;42542;48.360;10.958;2023-05-17T01:07:54;96349.03;;;8.08;90.54
56668;BME280;42542;48.360;10.958;2023-05-17T01:14:29;96352.13;;;8.03;89.78
56668;BME280;42542;48.360;10.958;2023-05-17T01:20:39;96359.72;;;7.98;89.39
56668;BME280;42542;48.360;10.958;2023-05-17T01:24:08;96359.13;;;7.95;89.75
56668;BME280;42542;48.360;10.958;2023-05-17T01:27:19;96357.31;;;7.95;89.49
56668;BME280;42542;48.360;10.958;2023-05-17T01:30:24;96361.09;;;7.93;88.74
56668;BME280;42542;48.360;10.958;2023-05-17T01:33:27;96366.72;;;7.90;89.04
56668;BME280;42542;48.360;10.958;2023-05-17T01:36:32;96370.34;;;7.89;88.64
56668;BME280;42542;48.360;10.958;2023-05-17T01:39:36;96370.78;;;7.84;88.22
56668;BME280;42542;48.360;10.958;2023-05-17T01:42:40;96373.72;;;7.81;87.28
56668;BME280;42542;48.360;10.958;2023-05-17T01:46:06;96370.78;;;7.74;87.72
56668;BME280;42542;48.360;10.958;2023-05-17T01:49:15;96373.19;;;7.77;87.83
56668;BME280;42542;48.360;10.958;2023-05-17T01:52:31;96368.13;;;7.74;87.70
56668;BME280;42542;48.360;10.958;2023-05-17T01:58:51;96378.34;;;7.69;87.06
56668;BME280;42542;48.360;10.958;2023-05-17T02:01:56;96378.63;;;7.66;87.05
56668;BME280;42542;48.360;10.958;2023-05-17T02:05:05;96369.09;;;7.64;86.80
56668;BME280;42542;48.360;10.958;2023-05-17T02:08:07;96367.44;;;7.63;87.01
56668;BME280;42542;48.360;10.958;2023-05-17T02:11:10;96368.41;;;7.62;87.31
56668;BME280;42542;48.360;10.958;2023-05-17T02:14:15;96367.84;;;7.58;86.70
56668;BME280;42542;48.360;10.958;2023-05-17T02:17:18;96371.47;;;7.57;86.56
56668;BME280;42542;48.360;10.958;2023-05-17T02:20:20;96371.06;;;7.52;85.77
56668;BME280;42542;48.360;10.958;2023-05-17T02:23:22;96368.84;;;7.48;85.36
56668;BME280;42542;48.360;10.958;2023-05-17T02:26:26;96376.94;;;7.46;85.90
56668;BME280;42542;48.360;10.958;2023-05-17T02:29:29;96372.72;;;7.43;85.72
56668;BME280;42542;48.360;10.958;2023-05-17T02:32:33;96375.69;;;7.40;85.77
56668;BME280;42542;48.360;10.958;2023-05-17T02:35:35;96370.63;;;7.37;85.33
56668;BME280;42542;48.360;10.958;2023-05-17T02:38:37;96372.44;;;7.37;84.73
56668;BME280;42542;48.360;10.958;2023-05-17T02:41:40;96371.06;;;7.33;84.55
56668;BME280;42542;48.360;10.958;2023-05-17T02:44:42;96368.97;;;7.27;84.10
56668;BME280;42542;48.360;10.958;2023-05-17T02:47:44;96373.44;;;7.26;84.63
56668;BME280;42542;48.360;10.958;2023-05-17T02:50:45;96376.09;;;7.26;84.86
56668;BME280;42542;48.360;10.958;2023-05-17T02:53:48;96381.53;;;7.25;84.46
56668;BME280;42542;48.360;10.958;2023-05-17T02:56:50;96378.47;;;7.20;84.29
56668;BME280;42542;48.360;10.958;2023-05-17T02:59:52;96391.59;;;7.21;84.58
56668;BME280;42542;48.360;10.958;2023-05-17T03:02:54;96378.97;;;7.14;84.39
56668;BME280;42542;48.360;10.958;2023-05-17T03:06:02;96395.50;;;7.17;84.57
56668;BME280;42542;48.360;10.958;2023-05-17T03:09:06;96387.78;;;7.14;84.79
56668;BME280;42542;48.360;10.958;2023-05-17T03:12:08;96391.59;;;7.12;84.38
56668;BME280;42542;48.360;10.958;2023-05-17T03:15:10;96394.50;;;7.09;84.47
56668;BME280;42542;48.360;10.958;2023-05-17T03:18:13;96400.94;;;7.06;85.32
56668;BME280;42542;48.360;10.958;2023-05-17T03:21:16;96405.44;;;7.05;85.15
56668;BME280;42542;48.360;10.958;2023-05-17T03:24:18;96414.50;;;7.03;85.34
56668;BME280;42542;48.360;10.958;2023-05-17T03:27:21;96421.03;;;6.99;85.24
56668;BME280;42542;48.360;10.958;2023-05-17T03:30:23;96421.03;;;6.99;85.35
56668;BME280;42542;48.360;10.958;2023-05-17T03:33:26;96420.22;;;6.98;85.51
56668;BME280;42542;48.360;10.958;2023-05-17T03:36:28;96422.31;;;6.95;85.38
56668;BME280;42542;48.360;10.958;2023-05-17T03:39:29;96436.56;;;6.94;85.42
56668;BME280;42542;48.360;10.958;2023-05-17T03:42:32;96434.03;;;6.92;85.43
56668;BME280;42542;48.360;10.958;2023-05-17T03:45:34;96439.50;;;6.91;84.98
56668;BME280;42542;48.360;10.958;2023-05-17T03:48:36;96453.75;;;6.90;84.99
56668;BME280;42542;48.360;10.958;2023-05-17T03:51:38;96451.22;;;6.88;85.31
56668;BME280;42542;48.360;10.958;2023-05-17T03:54:41;96449.53;;;6.87;84.93
56668;BME280;42542;48.360;10.958;2023-05-17T03:57:44;96458.63;;;6.85;84.64
56668;BME280;42542;48.360;10.958;2023-05-17T04:00:46;96456.25;;;6.82;84.76
56668;BME280;42542;48.360;10.958;2023-05-17T04:03:51;96453.72;;;6.80;84.54
56668;BME280;42542;48.360;10.958;2023-05-17T04:06:54;96462.41;;;6.82;84.90
56668;BME280;42542;48.360;10.958;2023-05-17T04:09:56;96465.19;;;6.81;84.46
56668;BME280;42542;48.360;10.958;2023-05-17T04:13:02;96475.81;;;6.81;84.50
56668;BME280;42542;48.360;10.958;2023-05-17T04:16:05;96474.00;;;6.81;84.50
56668;BME280;42542;48.360;10.958;2023-05-17T04:19:09;96484.75;;;6.80;84.36
56668;BME280;42542;48.360;10.958;2023-05-17T04:22:13;96478.59;;;6.79;84.51
56668;BME280;42542;48.360;10.958;2023-05-17T04:25:16;96489.22;;;6.79;84.57
56668;BME280;42542;48.360;10.958;2023-05-17T04:28:23;96493.69;;;6.79;84.54
56668;BME280;42542;48.360;10.958;2023-05-17T04:31:27;96493.69;;;6.79;84.71
56668;BME280;42542;48.360;10.958;2023-05-17T04:34:31;96499.84;;;6.79;84.88
56668;BME280;42542;48.360;10.958;2023-05-17T04:37:38;96507.69;;;6.81;84.77
56668;BME280;42542;48.360;10.958;2023-05-17T04:41:03;96504.91;;;6.82;85.18
56668;BME280;42542;48.360;10.958;2023-05-17T04:44:11;96511.63;;;6.86;84.14
56668;BME280;42542;48.360;10.958;2023-05-17T04:47:17;96510.66;;;6.87;84.38
56668;BME280;42542;48.360;10.958;2023-05-17T04:50:21;96513.19;;;6.89;84.69
56668;BME280;42542;48.360;10.958;2023-05-17T04:53:25;96521.88;;;6.91;84.76
56668;BME280;42542;48.360;10.958;2023-05-17T04:56:28;96519.34;;;6.89;83.95
56668;BME280;42542;48.360;10.958;2023-05-17T04:59:33;96516.94;;;6.86;83.97
56668;BME280;42542;48.360;10.958;2023-05-17T05:02:47;96513.84;;;6.81;83.28
56668;BME280;42542;48.360;10.958;2023-05-17T05:05:53;96525.88;;;6.85;83.54
56668;BME280;42542;48.360;10.958;2023-05-17T05:09:02;96533.59;;;6.88;83.43
56668;BME280;42542;48.360;10.958;2023-05-17T05:12:08;96531.91;;;6.87;83.55
56668;BME280;42542;48.360;10.958;2023-05-17T05:15:12;96532.75;;;6.88;83.70
56668;BME280;42542;48.360;10.958;2023-05-17T05:18:21;96539.63;;;6.90;83.71
56668;BME280;42542;48.360;10.958;2023-05-17T05:21:26;96540.94;;;6.96;83.96
56668;BME280;42542;48.360;10.958;2023-05-17T05:24:32;96541.75;;;6.96;83.52
56668;BME280;42542;48.360;10.958;2023-05-17T05:27:39;96546.97;;;6.98;82.86
56668;BME280;42542;48.360;10.958;2023-05-17T05:30:44;96551.16;;;7.00;83.49
56668;BME280;42542;48.360;10.958;2023-05-17T05:33:50;96553.44;;;7.05;83.14
56668;BME280;42542;48.360;10.958;2023-05-17T05:36:53;96564.91;;;7.05;82.42
56668;BME280;42542;48.360;10.958;2023-05-17T05:39:57;96566.72;;;7.05;82.23
56668;BME280;42542;48.360;10.958;2023-05-17T05:43:02;96561.25;;;7.06;82.28
56668;BME280;42542;48.360;10.958;2023-05-17T05:46:09;96561.97;;;7.09;82.46
56668;BME280;42542;48.360;10.958;2023-05-17T05:49:15;96564.06;;;7.05;82.44
56668;BME280;42542;48.360;10.958;2023-05-17T05:52:19;96569.09;;;7.08;82.37
56668;BME280;42542;48.360;10.958;2023-05-17T05:55:21;96561.59;;;7.13;83.10
56668;BME280;42542;48.360;10.958;2023-05-17T05:58:25;96560.75;;;7.13;82.12
56668;BME280;42542;48.360;10.958;2023-05-17T06:01:29;96551.63;;;7.15;82.98
56668;BME280;42542;48.360;10.958;2023-05-17T06:04:32;96567.78;;;7.23;83.50
56668;BME280;42542;48.360;10.958;2023-05-17T06:07:47;96565.84;;;7.25;81.96
56668;BME280;42542;48.360;10.958;2023-05-17T06:10:51;96563.88;;;7.27;81.86
56668;BME280;42542;48.360;10.958;2023-05-17T06:13:56;96568.09;;;7.30;81.43
56668;BME280;42542;48.360;10.958;2023-05-17T06:16:59;96570.03;;;7.28;80.83
56668;BME280;42542;48.360;10.958;2023-05-17T06:20:05;96566.97;;;7.32;80.54
56668;BME280;42542;48.360;10.958;2023-05-17T06:23:11;96572.19;;;7.34;80.36
56668;BME280;42542;48.360;10.958;2023-05-17T06:26:14;96581.97;;;7.33;81.32
56668;BME280;42542;48.360;10.958;2023-05-17T06:29:19;96580.47;;;7.40;81.61
56668;BME280;42542;48.360;10.958;2023-05-17T06:32:21;96578.78;;;7.39;80.42
56668;BME280;42542;48.360;10.958;2023-05-17T06:35:28;96587.91;;;7.47;81.08
56668;BME280;42542;48.360;10.958;2023-05-17T06:38:45;96583.00;;;7.52;80.74
56668;BME280;42542;48.360;10.958;2023-05-17T06:41:49;96581.06;;;7.54;80.88
56668;BME280;42542;48.360;10.958;2023-05-17T06:44:55;96586.56;;;7.62;80.21
56668;BME280;42542;48.360;10.958;2023-05-17T06:47:58;96591.47;;;7.66;79.53
56668;BME280;42542;48.360;10.958;2023-05-17T06:51:02;96582.09;;;7.72;79.64
56668;BME280;42542;48.360;10.958;2023-05-17T06:54:08;96597.38;;;7.79;80.46
56668;BME280;42542;48.360;10.958;2023-05-17T06:57:15;96595.19;;;7.84;79.49
56668;BME280;42542;48.360;10.958;2023-05-17T07:00:21;96582.16;;;7.91;79.30
56668;BME280;42542;48.360;10.958;2023-05-17T07:03:30;96591.69;;;7.94;79.24
56668;BME280;42542;48.360;10.958;2023-05-17T07:06:33;96584.81;;;8.01;78.42
56668;BME280;42542;48.360;10.958;2023-05-17T07:09:42;96595.50;;;8.10;79.49
56668;BME280;42542;48.360;10.958;2023-05-17T07:12:46;96597.63;;;8.16;78.54
56668;BME280;42542;48.360;10.958;2023-05-17T07:15:59;96587.25;;;8.23;77.32
56668;BME280;42542;48.360;10.958;2023-05-17T07:19:02;96592.84;;;8.30;77.53
56668;BME280;42542;48.360;10.958;2023-05-17T07:22:06;96594.72;;;8.39;78.49
56668;BME280;42542;48.360;10.958;2023-05-17T07:25:09;96592.22;;;8.47;77.70
56668;BME280;42542;48.360;10.958;2023-05-17T07:28:12;96594.19;;;8.54;77.83
56668;BME280;42542;48.360;10.958;2023-05-17T07:31:16;96594.03;;;8.66;78.04
56668;BME280;42542;48.360;10.958;2023-05-17T07:34:35;96597.69;;;8.74;76.84
56668;BME280;42542;48.360;10.958;2023-05-17T07:37:40;96602.75;;;8.77;75.65
56668;BME280;42542;48.360;10.958;2023-05-17T07:40:45;96614.66;;;8.83;74.63
56668;BME280;42542;48.360;10.958;2023-05-17T07:43:48;96606.22;;;8.87;74.22
56668;BME280;42542;48.360;10.958;2023-05-17T07:46:57;96616.31;;;8.93;74.97
56668;BME280;42542;48.360;10.958;2023-05-17T07:50:09;96604.53;;;8.96;75.77
56668;BME280;42542;48.360;10.958;2023-05-17T07:53:15;96609.72;;;9.07;74.49
56668;BME280;42542;48.360;10.958;2023-05-17T07:56:19;96604.94;;;9.11;72.93
56668;BME280;42542;48.360;10.958;2023-05-17T07:59:26;96618.97;;;9.13;72.50
56668;BME280;42542;48.360;10.958;2023-05-17T08:02:29;96623.72;;;9.19;71.97
56668;BME280;42542;48.360;10.958;2023-05-17T08:05:46;96618.94;;;9.22;71.75
56668;BME280;42542;48.360;10.958;2023-05-17T08:08:50;96615.41;;;9.31;73.62
56668;BME280;42542;48.360;10.958;2023-05-17T08:11:54;96619.19;;;9.38;71.80
56668;BME280;42542;48.360;10.958;2023-05-17T08:14:57;96615.06;;;9.44;71.43
56668;BME280;42542;48.360;10.958;2023-05-17T08:18:01;96631.22;;;9.52;72.11
56668;BME280;42542;48.360;10.958;2023-05-17T08:21:08;96627.97;;;9.58;72.05
56668;BME280;42542;48.360;10.958;2023-05-17T08:24:14;96622.19;;;9.63;71.67
56668;BME280;42542;48.360;10.958;2023-05-17T08:27:20;96624.72;;;9.64;71.03
56668;BME280;42542;48.360;10.958;2023-05-17T08:30:27;96635.94;;;9.68;71.62
56668;BME280;42542;48.360;10.958;2023-05-17T08:33:32;96622.91;;;9.65;69.75
56668;BME280;42542;48.360;10.958;2023-05-17T08:36:35;96625.72;;;9.63;69.75
56668;BME280;42542;48.360;10.958;2023-05-17T08:39:48;96625.84;;;9.62;68.93
56668;BME280;42542;48.360;10.958;2023-05-17T08:42:56;96630.59;;;9.68;70.11
56668;BME280;42542;48.360;10.958;2023-05-17T08:46:00;96617.50;;;9.74;70.69
56668;BME280;42542;48.360;10.958;2023-05-17T08:49:06;96621.25;;;9.82;70.71
56668;BME280;42542;48.360;10.958;2023-05-17T08:52:11;96626.19;;;9.86;70.26
56668;BME280;42542;48.360;10.958;2023-05-17T08:55:19;96626.44;;;9.93;70.60
56668;BME280;42542;48.360;10.958;2023-05-17T08:58:27;96632.69;;;10.01;71.69
56668;BME280;42542;48.360;10.958;2023-05-17T09:01:47;96630.72;;;10.03;69.48
56668;BME280;42542;48.360;10.958;2023-05-17T09:04:56;96635.22;;;10.03;69.09
56668;BME280;42542;48.360;10.958;2023-05-17T09:07:59;96630.19;;;10.00;68.03
56668;BME280;42542;48.360;10.958;2023-05-17T09:11:06;96638.19;;;10.00;68.79
56668;BME280;42542;48.360;10.958;2023-05-17T09:14:15;96645.91;;;10.03;68.05
56668;BME280;42542;48.360;10.958;2023-05-17T09:17:20;96641.53;;;10.02;67.24
56668;BME280;42542;48.360;10.958;2023-05-17T09:20:27;96647.59;;;10.04;67.95
56668;BME280;42542;48.360;10.958;2023-05-17T09:23:40;96642.06;;;10.15;68.05
56668;BME280;42542;48.360;10.958;2023-05-17T09:26:47;96637.13;;;10.20;67.21
56668;BME280;42542;48.360;10.958;2023-05-17T09:29:53;96643.44;;;10.29;65.69
56668;BME280;42542;48.360;10.958;2023-05-17T09:32:55;96645.03;;;10.39;65.97
56668;BME280;42542;48.360;10.958;2023-05-17T09:36:01;96659.31;;;10.48;63.44
56668;BME280;42542;48.360;10.958;2023-05-17T09:39:05;96664.22;;;10.52;64.36
56668;BME280;42542;48.360;10.958;2023-05-17T09:42:09;96660.25;;;10.56;63.54
56668;BME280;42542;48.360;10.958;2023-05-17T09:45:20;96653.59;;;10.61;63.86
56668;BME280;42542;48.360;10.958;2023-05-17T09:48:27;96648.19;;;10.70;64.66
56668;BME280;42542;48.360;10.958;2023-05-17T09:51:40;96645.28;;;10.81;64.69
56668;BME280;42542;48.360;10.958;2023-05-17T09:54:57;96646.34;;;10.88;63.72
56668;BME280;42542;48.360;10.958;2023-05-17T09:58:02;96659.44;;;10.91;63.71
56668;BME280;42542;48.360;10.958;2023-05-17T10:01:06;96653.25;;;10.91;62.24
56668;BME280;42542;48.360;10.958;2023-05-17T10:04:11;96649.59;;;10.92;61.22
56668;BME280;42542;48.360;10.958;2023-05-17T10:07:19;96650.41;;;10.92;60.13
56668;BME280;42542;48.360;10.958;2023-05-17T10:10:26;96650.66;;;10.99;60.44
56668;BME280;42542;48.360;10.958;2023-05-17T10:13:44;96647.81;;;11.01;61.51
56668;BME280;42542;48.360;10.958;2023-05-17T10:16:50;96646.66;;;11.03;62.09
56668;BME280;42542;48.360;10.958;2023-05-17T10:19:56;96643.97;;;11.03;60.45
56668;BME280;42542;48.360;10.958;2023-05-17T10:23:04;96649.03;;;11.06;61.48
56668;BME280;42542;48.360;10.958;2023-05-17T10:26:19;96636.50;;;11.07;61.08
56668;BME280;42542;48.360;10.958;2023-05-17T10:29:23;96631.00;;;11.08;61.59
56668;BME280;42542;48.360;10.958;2023-05-17T10:32:27;96632.72;;;11.17;62.73
56668;BME280;42542;48.360;10.958;2023-05-17T10:35:30;96628.81;;;11.29;63.65
56668;BME280;42542;48.360;10.958;2023-05-17T10:38:33;96626.56;;;11.43;62.77
56668;BME280;42542;48.360;10.958;2023-05-17T10:41:49;96623.16;;;11.58;61.69
56668;BME280;42542;48.360;10.958;2023-05-17T10:45:05;96623.25;;;11.74;62.36
56668;BME280;42542;48.360;10.958;2023-05-17T10:48:10;96632.78;;;11.95;60.51
56668;BME280;42542;48.360;10.958;2023-05-17T10:51:12;96628.47;;;12.10;60.05
56668;BME280;42542;48.360;10.958;2023-05-17T10:54:33;96622.31;;;12.26;58.22
56668;BME280;42542;48.360;10.958;2023-05-17T10:57:39;96613.66;;;12.32;57.29
56668;BME280;42542;48.360;10.958;2023-05-17T11:00:55;96620.50;;;12.34;56.68
56668;BME280;42542;48.360;10.958;2023-05-17T11:03:57;96620.16;;;12.29;55.54
56668;BME280;42542;48.360;10.958;2023-05-17T11:11:10;96608.41;;;12.22;55.86
56668;BME280;42542;48.360;10.958;2023-05-17T11:14:14;96607.25;;;12.17;55.35
56668;BME280;42542;48.360;10.958;2023-05-17T11:17:24;96600.84;;;12.09;55.91
56668;BME280;42542;48.360;10.958;2023-05-17T11:20:34;96604.22;;;12.20;56.67
56668;BME280;42542;48.360;10.958;2023-05-17T11:23:47;96607.25;;;12.25;55.19
56668;BME280;42542;48.360;10.958;2023-05-17T11:26:51;96598.56;;;12.31;54.76
56668;BME280;42542;48.360;10.958;2023-05-17T11:30:07;96596.75;;;12.47;56.92
56668;BME280;42542;48.360;10.958;2023-05-17T11:33:14;96593.63;;;12.60;54.91
56668;BME280;42542;48.360;10.958;2023-05-17T11:36:54;96595.13;;;12.71;52.22
56668;BME280;42542;48.360;10.958;2023-05-17T11:40:10;96594.63;;;12.67;51.33
56668;BME280;42542;48.360;10.958;2023-05-17T11:43:19;96588.91;;;12.70;52.96
56668;BME280;42542;48.360;10.958;2023-05-17T11:46:23;96594.81;;;12.74;52.95
56668;BME280;42542;48.360;10.958;2023-05-17T11:49:31;96593.13;;;12.73;52.00
56668;BME280;42542;48.360;10.958;2023-05-17T11:52:40;96596.28;;;12.76;52.24
56668;BME280;42542;48.360;10.958;2023-05-17T11:55:48;96587.25;;;12.77;52.71
56668;BME280;42542;48.360;10.958;2023-05-17T11:58:53;96592.13;;;12.98;54.27
56668;BME280;42542;48.360;10.958;2023-05-17T12:01:58;96590.28;;;13.07;53.79
56668;BME280;42542;48.360;10.958;2023-05-17T12:05:00;96584.63;;;13.18;53.02
56668;BME280;42542;48.360;10.958;2023-05-17T12:08:06;96586.25;;;13.19;52.19
56668;BME280;42542;48.360;10.958;2023-05-17T12:11:13;96583.78;;;13.17;52.47
56668;BME280;42542;48.360;10.958;2023-05-17T12:14:18;96595.84;;;13.13;51.22
56668;BME280;42542;48.360;10.958;2023-05-17T12:17:30;96587.06;;;13.11;52.30
56668;BME280;42542;48.360;10.958;2023-05-17T12:20:36;96592.47;;;13.19;53.63
56668;BME280;42542;48.360;10.958;2023-05-17T12:23:45;96594.16;;;13.20;51.78
56668;BME280;42542;48.360;10.958;2023-05-17T12:26:52;96593.66;;;13.17;52.44
56668;BME280;42542;48.360;10.958;2023-05-17T12:29:55;96584.41;;;13.19;53.31
56668;BME280;42542;48.360;10.958;2023-05-17T12:32:57;96588.31;;;13.25;54.91
56668;BME280;42542;48.360;10.958;2023-05-17T12:36:02;96589.47;;;13.31;54.44
56668;BME280;42542;48.360;10.958;2023-05-17T12:39:04;96585.94;;;13.38;54.65
56668;BME280;42542;48.360;10.958;2023-05-17T12:42:16;96593.28;;;13.44;51.89
56668;BME280;42542;48.360;10.958;2023-05-17T12:45:20;96599.50;;;13.53;53.22
56668;BME280;42542;48.360;10.958;2023-05-17T12:48:44;96592.41;;;13.68;51.63
56668;BME280;42542;48.360;10.958;2023-05-17T12:51:49;96589.38;;;13.71;51.23
56668;BME280;42542;48.360;10.958;2023-05-17T12:54:53;96601.78;;;13.72;50.79
56668;BME280;42542;48.360;10.958;2023-05-17T12:57:54;96590.91;;;13.65;49.35
56668;BME280;42542;48.360;10.958;2023-05-17T13:01:02;96586.91;;;13.61;50.96
56668;BME280;42542;48.360;10.958;2023-05-17T13:04:07;96589.22;;;13.64;50.22
56668;BME280;42542;48.360;10.958;2023-05-17T13:07:10;96585.34;;;13.75;50.28
56668;BME280;42542;48.360;10.958;2023-05-17T13:10:21;96589.81;;;13.91;50.56
56668;BME280;42542;48.360;10.958;2023-05-17T13:13:24;96589.28;;;14.03;49.97
56668;BME280;42542;48.360;10.958;2023-05-17T13:16:29;96590.72;;;14.14;48.55
56668;BME280;42542;48.360;10.958;2023-05-17T13:19:31;96586.03;;;14.16;48.45
56668;BME280;42542;48.360;10.958;2023-05-17T13:22:34;96580.69;;;14.08;47.16
56668;BME280;42542;48.360;10.958;2023-05-17T13:25:36;96584.03;;;14.10;47.44
56668;BME280;42542;48.360;10.958;2023-05-17T13:28:39;96583.16;;;14.18;47.95
56668;BME280;42542;48.360;10.958;2023-05-17T13:31:45;96583.28;;;14.24;48.36
56668;BME280;42542;48.360;10.958;2023-05-17T13:34:49;96587.63;;;14.33;47.58
56668;BME280;42542;48.360;10.958;2023-05-17T13:37:54;96589.00;;;14.21;46.36
56668;BME280;42542;48.360;10.958;2023-05-17T13:41:03;96596.41;;;14.19;48.21
56668;BME280;42542;48.360;10.958;2023-05-17T13:44:12;96587.53;;;14.19;48.59
56668;BME280;42542;48.360;10.958;2023-05-17T13:47:14;96588.34;;;14.19;48.27
56668;BME280;42542;48.360;10.958;2023-05-17T13:50:21;96579.09;;;14.22;48.87
56668;BME280;42542;48.360;10.958;2023-05-17T13:53:27;96586.28;;;14.29;49.18
56668;BME280;42542;48.360;10.958;2023-05-17T13:56:33;96588.16;;;14.21;48.74
56668;BME280;42542;48.360;10.958;2023-05-17T13:59:38;96597.09;;;14.13;50.01
56668;BME280;42542;48.360;10.958;2023-05-17T14:02:40;96588.19;;;14.13;50.12
56668;BME280;42542;48.360;10.958;2023-05-17T14:05:43;96584.50;;;14.14;49.46
56668;BME280;42542;48.360;10.958;2023-05-17T14:08:53;96588.72;;;14.16;50.13
56668;BME280;42542;48.360;10.958;2023-05-17T14:11:59;96592.75;;;14.12;49.17
56668;BME280;42542;48.360;10.958;2023-05-17T14:15:05;96589.91;;;14.05;49.33
56668;BME280;42542;48.360;10.958;2023-05-17T14:18:10;96590.78;;;13.98;49.04
56668;BME280;42542;48.360;10.958;2023-05-17T14:21:15;96592.31;;;13.92;49.23
56668;BME280;42542;48.360;10.958;2023-05-17T14:24:17;96597.56;;;13.86;48.52
56668;BME280;42542;48.360;10.958;2023-05-17T14:27:22;96590.34;;;13.78;48.71
56668;BME280;42542;48.360;10.958;2023-05-17T14:30:25;96590.53;;;13.77;48.85
56668;BME280;42542;48.360;10.958;2023-05-17T14:33:32;96594.72;;;13.79;49.40
56668;BME280;42542;48.360;10.958;2023-05-17T14:36:34;96597.25;;;13.81;49.24
56668;BME280;42542;48.360;10.958;2023-05-17T14:39:39;96596.25;;;13.82;49.82
56668;BME280;42542;48.360;10.958;2023-05-17T14:42:51;96585.66;;;13.80;49.70
56668;BME280;42542;48.360;10.958;2023-05-17T14:46:05;96591.19;;;13.87;50.26
56668;BME280;42542;48.360;10.958;2023-05-17T14:49:09;96590.66;;;13.83;48.17
56668;BME280;42542;48.360;10.958;2023-05-17T14:52:17;96597.06;;;13.82;48.86
56668;BME280;42542;48.360;10.958;2023-05-17T14:55:19;96591.50;;;13.84;49.51
56668;BME280;42542;48.360;10.958;2023-05-17T14:58:23;96593.84;;;13.87;49.26
56668;BME280;42542;48.360;10.958;2023-05-17T15:01:39;96591.47;;;13.92;49.57
56668;BME280;42542;48.360;10.958;2023-05-17T15:04:42;96587.38;;;14.12;50.38
56668;BME280;42542;48.360;10.958;2023-05-17T15:07:50;96586.59;;;14.34;48.69
56668;BME280;42542;48.360;10.958;2023-05-17T15:10:53;96588.56;;;14.49;48.58
56668;BME280;42542;48.360;10.958;2023-05-17T15:13:56;96597.25;;;14.59;48.76
56668;BME280;42542;48.360;10.958;2023-05-17T15:16:58;96593.00;;;14.64;48.04
56668;BME280;42542;48.360;10.958;2023-05-17T15:20:06;96590.44;;;14.71;48.46
56668;BME280;42542;48.360;10.958;2023-05-17T15:23:11;96594.41;;;14.83;48.64
56668;BME280;42542;48.360;10.958;2023-05-17T15:26:16;96592.47;;;14.92;49.13
56668;BME280;42542;48.360;10.958;2023-05-17T15:29:24;96599.53;;;14.93;48.08
56668;BME280;42542;48.360;10.958;2023-05-17T15:32:32;96599.97;;;14.81;47.73
56668;BME280;42542;48.360;10.958;2023-05-17T15:35:42;96608.09;;;14.73;48.96
56668;BME280;42542;48.360;10.958;2023-05-17T15:38:48;96606.41;;;14.72;49.11
56668;BME280;42542;48.360;10.958;2023-05-17T15:41:50;96608.19;;;14.57;48.90
56668;BME280;42542;48.360;10.958;2023-05-17T15:44:57;96609.59;;;14.45;49.04
56668;BME280;42542;48.360;10.958;2023-05-17T15:48:03;96599.25;;;14.26;48.96
56668;BME280;42542;48.360;10.958;2023-05-17T15:51:06;96606.38;;;14.11;50.55
56668;BME280;42542;48.360;10.958;2023-05-17T15:54:13;96612.63;;;14.03;50.40
56668;BME280;42542;48.360;10.958;2023-05-17T15:57:16;96615.34;;;13.87;50.85
56668;BME280;42542;48.360;10.958;2023-05-17T16:00:22;96620.59;;;13.72;51.22
56668;BME280;42542;48.360;10.958;2023-05-17T16:03:25;96619.28;;;13.60;51.84
56668;BME280;42542;48.360;10.958;2023-05-17T16:06:34;96624.84;;;13.50;52.17
56668;BME280;42542;48.360;10.958;2023-05-17T16:09:39;96620.00;;;13.46;51.75
56668;BME280;42542;48.360;10.958;2023-05-17T16:12:45;96633.91;;;13.41;52.20
56668;BME280;42542;48.360;10.958;2023-05-17T16:15:54;96620.47;;;13.33;52.96
56668;BME280;42542;48.360;10.958;2023-05-17T16:19:02;96632.41;;;13.31;54.73
56668;BME280;42542;48.360;10.958;2023-05-17T16:22:13;96629.72;;;13.31;57.11
56668;BME280;42542;48.360;10.958;2023-05-17T16:25:23;96627.88;;;13.23;56.18
56668;BME280;42542;48.360;10.958;2023-05-17T16:28:30;96629.41;;;13.17;56.50
56668;BME280;42542;48.360;10.958;2023-05-17T16:31:33;96639.25;;;13.09;56.53